createdAt,value
2022-11-19T00:01:23.501Z,19.33
2022-11-19T00:03:52.914Z,14.02
2022-11-19T00:06:24.740Z,16.88
2022-11-19T00:08:51.287Z,17.60
2022-11-19T00:11:42.259Z,16.13
2022-11-19T00:14:12.277Z,18.60
2022-11-19T00:16:38.733Z,14.70
2022-11-19T00:19:05.536Z,18.00
2022-11-19T00:21:32.129Z,14.55
2022-11-19T00:23:58.842Z,14.80
2022-11-19T00:26:25.525Z,14.43
2022-11-19T00:28:52.204Z,15.85
2022-11-19T00:31:18.969Z,13.48
2022-11-19T00:33:45.849Z,15.52
2022-11-19T00:36:14.976Z,13.23
2022-11-19T00:38:41.828Z,12.43
2022-11-19T00:41:08.488Z,14.15
2022-11-19T00:43:46.851Z,15.18
2022-11-19T00:46:55.263Z,13.00
2022-11-19T00:49:25.022Z,15.57
2022-11-19T00:51:55.633Z,14.80
2022-11-19T00:54:25.956Z,16.17
2022-11-19T00:56:54.477Z,14.35
2022-11-19T00:59:21.304Z,14.32
2022-11-19T01:01:48.579Z,16.50
2022-11-19T01:04:20.522Z,13.63
2022-11-19T01:06:47.893Z,14.48
2022-11-19T01:09:16.733Z,19.50
2022-11-19T01:11:46.312Z,15.43
2022-11-19T01:14:13.654Z,14.45
2022-11-19T01:16:42.707Z,14.23
2022-11-19T01:19:12.928Z,18.27
2022-11-19T01:21:43.189Z,11.75
2022-11-19T01:24:11.111Z,13.73
2022-11-19T01:26:41.700Z,16.88
2022-11-19T01:29:11.881Z,17.30
2022-11-19T01:31:38.410Z,13.68
2022-11-19T01:34:04.850Z,14.88
2022-11-19T01:36:31.401Z,13.52
2022-11-19T01:38:58.460Z,16.98
2022-11-19T01:41:28.357Z,13.30
2022-11-19T01:43:59.974Z,11.63
2022-11-19T01:46:30.366Z,14.65
2022-11-19T01:49:04.920Z,14.15
2022-11-19T01:51:37.717Z,17.42
2022-11-19T01:54:10.816Z,15.90
2022-11-19T01:56:37.329Z,18.33
2022-11-19T01:59:09.299Z,12.13
2022-11-19T02:01:36.013Z,16.88
2022-11-19T02:04:04.657Z,14.57
2022-11-19T02:06:32.179Z,15.63
2022-11-19T02:08:58.690Z,18.77
2022-11-19T02:11:46.416Z,17.77
2022-11-19T02:14:23.805Z,16.70
2022-11-19T02:17:06.264Z,16.38
2022-11-19T02:19:48.355Z,16.17
2022-11-19T02:22:52.397Z,17.45
2022-11-19T02:25:39.502Z,18.80
2022-11-19T02:28:30.831Z,17.63
2022-11-19T02:31:10.548Z,20.20
2022-11-19T02:33:52.731Z,22.07
2022-11-19T02:36:24.347Z,15.57
2022-11-19T02:38:52.503Z,21.35
2022-11-19T02:41:36.744Z,22.58
2022-11-19T02:44:32.911Z,19.58
2022-11-19T02:47:03.593Z,18.00
2022-11-19T02:49:32.312Z,18.83
2022-11-19T02:52:00.471Z,21.17
2022-11-19T02:54:28.529Z,20.75
2022-11-19T02:56:58.875Z,21.15
2022-11-19T02:59:57.770Z,19.73
2022-11-19T03:03:05.326Z,23.38
2022-11-19T03:05:35.588Z,22.55
2022-11-19T03:08:03.474Z,20.50
2022-11-19T03:10:59.167Z,22.60
2022-11-19T03:13:54.076Z,21.33
2022-11-19T03:16:41.787Z,21.67
2022-11-19T03:19:23.840Z,25.30
2022-11-19T03:22:23.803Z,23.75
2022-11-19T03:25:05.477Z,20.85
2022-11-19T03:27:38.766Z,19.87
2022-11-19T03:30:06.078Z,18.83
2022-11-19T03:32:44.263Z,22.15
2022-11-19T03:35:28.320Z,20.85
2022-11-19T03:37:59.161Z,21.83
2022-11-19T03:40:30.224Z,21.87
2022-11-19T03:42:59.901Z,18.45
2022-11-19T03:45:32.310Z,18.33
2022-11-19T03:48:01.224Z,14.90
2022-11-19T03:50:38.068Z,21.90
2022-11-19T03:53:04.867Z,24.17
2022-11-19T03:55:37.852Z,20.17
2022-11-19T03:58:06.244Z,20.08
2022-11-19T04:00:33.599Z,19.58
2022-11-19T04:03:00.035Z,19.50
2022-11-19T04:05:26.865Z,22.80
2022-11-19T04:07:54.407Z,21.30
2022-11-19T04:10:20.838Z,19.23
2022-11-19T04:12:47.351Z,22.38
2022-11-19T04:15:14.974Z,21.27
2022-11-19T04:17:41.719Z,22.83
2022-11-19T04:20:09.489Z,20.27
2022-11-19T04:22:35.848Z,24.35
2022-11-19T04:25:02.337Z,25.38
2022-11-19T04:27:28.769Z,19.98
2022-11-19T04:29:55.294Z,20.47
2022-11-19T04:32:21.694Z,21.55
2022-11-19T04:34:48.116Z,19.77
2022-11-19T04:37:14.547Z,20.75
2022-11-19T04:39:41.006Z,19.33
2022-11-19T04:42:07.438Z,17.67
2022-11-19T04:44:34.181Z,16.02
2022-11-19T04:47:00.739Z,20.38
2022-11-19T04:49:27.130Z,18.17
2022-11-19T04:51:53.688Z,18.40
2022-11-19T04:54:20.243Z,23.60
2022-11-19T04:56:46.640Z,19.20
2022-11-19T04:59:13.093Z,15.18
2022-11-19T05:01:39.567Z,19.60
2022-11-19T05:04:06.076Z,18.02
2022-11-19T05:06:33.384Z,19.15
2022-11-19T05:08:59.918Z,20.75
2022-11-19T05:11:26.521Z,18.38
2022-11-19T05:13:53.074Z,19.98
2022-11-19T05:16:19.560Z,21.60
2022-11-19T05:18:46.919Z,19.67
2022-11-19T05:21:13.298Z,18.45
2022-11-19T05:23:39.801Z,20.52
2022-11-19T05:26:06.473Z,14.40
2022-11-19T05:28:39.086Z,16.58
2022-11-19T05:31:07.174Z,19.60
2022-11-19T05:33:34.479Z,22.60
2022-11-19T05:36:01.847Z,20.77
2022-11-19T05:38:29.952Z,22.08
2022-11-19T05:40:57.418Z,18.10
2022-11-19T05:43:23.832Z,19.73
2022-11-19T05:45:50.260Z,19.33
2022-11-19T05:48:17.396Z,17.70
2022-11-19T05:50:43.927Z,23.23
2022-11-19T05:53:10.675Z,17.73
2022-11-19T05:55:37.145Z,21.43
2022-11-19T05:58:03.650Z,13.18
2022-11-19T06:00:30.263Z,19.80
2022-11-19T06:02:56.979Z,16.48
2022-11-19T06:05:23.465Z,17.02
2022-11-19T06:07:50.832Z,19.67
2022-11-19T06:10:17.499Z,19.17
2022-11-19T06:12:45.954Z,17.10
2022-11-19T06:15:13.719Z,17.75
2022-11-19T06:17:40.096Z,18.60
2022-11-19T06:20:08.801Z,18.63
2022-11-19T06:22:36.378Z,16.65
2022-11-19T06:25:07.746Z,16.33
2022-11-19T06:27:34.808Z,20.55
2022-11-19T06:30:01.391Z,16.17
2022-11-19T06:32:27.830Z,16.53
2022-11-19T06:34:54.222Z,16.95
2022-11-19T06:37:20.644Z,16.60
2022-11-19T06:39:47.149Z,16.17
2022-11-19T06:42:32.214Z,15.85
2022-11-19T06:44:58.677Z,14.73
2022-11-19T06:47:25.158Z,18.33
2022-11-19T06:49:52.510Z,16.05
2022-11-19T06:52:18.905Z,16.90
2022-11-19T06:54:45.281Z,16.98
2022-11-19T06:57:11.721Z,17.27
2022-11-19T06:59:39.049Z,14.25
2022-11-19T07:02:06.925Z,17.75
2022-11-19T07:04:33.388Z,14.73
2022-11-19T07:06:59.841Z,18.00
2022-11-19T07:09:26.452Z,15.30
2022-11-19T07:11:52.874Z,19.98
2022-11-19T07:14:19.235Z,15.63
2022-11-19T07:16:45.977Z,15.52
2022-11-19T07:19:12.472Z,15.35
2022-11-19T07:21:39.303Z,15.13
2022-11-19T07:24:08.067Z,17.65
2022-11-19T07:26:35.578Z,20.77
2022-11-19T07:29:05.339Z,16.75
2022-11-19T07:31:33.517Z,16.48
2022-11-19T07:34:00.102Z,17.93
2022-11-19T07:36:26.575Z,17.85
2022-11-19T07:38:53.093Z,17.70
2022-11-19T07:41:38.908Z,21.10
2022-11-19T07:44:05.584Z,13.82
2022-11-19T07:46:32.185Z,16.77
2022-11-19T07:48:58.870Z,16.58
2022-11-19T07:51:25.752Z,18.65
2022-11-19T07:53:52.676Z,17.30
2022-11-19T07:56:20.071Z,16.20
2022-11-19T07:58:46.841Z,17.80
2022-11-19T08:01:18.331Z,20.17
2022-11-19T08:03:47.215Z,19.58
2022-11-19T08:06:17.613Z,21.23
2022-11-19T08:08:45.048Z,19.67
2022-11-19T08:11:13.848Z,24.20
2022-11-19T08:13:40.717Z,21.25
2022-11-19T08:16:09.818Z,20.42
2022-11-19T08:18:36.518Z,18.30
2022-11-19T08:21:09.068Z,19.85
2022-11-19T08:23:37.074Z,23.40
2022-11-19T08:26:06.554Z,16.98
2022-11-19T08:28:33.570Z,16.40
2022-11-19T08:31:09.573Z,13.48
2022-11-19T08:33:36.500Z,15.77
2022-11-19T08:36:03.724Z,21.67
2022-11-19T08:38:35.843Z,15.48
2022-11-19T08:41:23.382Z,18.17
2022-11-19T08:43:49.822Z,15.35
2022-11-19T08:46:16.200Z,16.58
2022-11-19T08:48:44.385Z,16.90
2022-11-19T08:51:13.523Z,19.10
2022-11-19T08:53:40.238Z,18.45
2022-11-19T08:56:07.846Z,16.15
2022-11-19T08:58:34.536Z,18.77
2022-11-19T09:01:01.005Z,12.70
2022-11-19T09:03:27.447Z,15.80
2022-11-19T09:06:01.737Z,14.15
2022-11-19T09:08:28.983Z,15.23
2022-11-19T09:10:55.723Z,16.35
2022-11-19T09:13:23.911Z,18.53
2022-11-19T09:15:59.138Z,16.60
2022-11-19T09:18:25.571Z,13.75
2022-11-19T09:20:56.124Z,14.93
2022-11-19T09:23:24.950Z,14.55
2022-11-19T09:26:09.249Z,13.73
2022-11-19T09:28:36.401Z,15.80
2022-11-19T09:31:08.902Z,13.52
2022-11-19T09:33:37.215Z,12.65
2022-11-19T09:36:04.398Z,17.27
2022-11-19T09:38:35.521Z,14.83
2022-11-19T09:41:17.383Z,12.13
2022-11-19T09:44:02.811Z,10.57
2022-11-19T09:46:39.911Z,13.50
2022-11-19T09:49:16.076Z,12.02
2022-11-19T09:51:50.693Z,16.57
2022-11-19T09:54:20.973Z,13.05
2022-11-19T09:56:50.132Z,12.77
2022-11-19T09:59:54.974Z,13.02
2022-11-19T10:02:23.469Z,10.98
2022-11-19T10:04:51.322Z,14.60
2022-11-19T10:07:30.985Z,11.88
2022-11-19T10:10:18.658Z,9.48
2022-11-19T10:12:56.035Z,11.85
2022-11-19T10:15:22.799Z,10.98
2022-11-19T10:18:27.414Z,8.83
2022-11-19T10:21:10.837Z,11.10
2022-11-19T10:23:46.297Z,9.30
2022-11-19T10:26:16.279Z,11.30
2022-11-19T10:28:52.239Z,11.43
2022-11-19T10:31:37.404Z,13.30
2022-11-19T10:34:30.868Z,15.02
2022-11-19T10:36:59.803Z,10.70
2022-11-19T10:39:37.123Z,9.63
2022-11-19T10:42:33.864Z,8.60
2022-11-19T10:45:03.925Z,12.30
2022-11-19T10:47:48.214Z,9.85
2022-11-19T10:50:22.919Z,7.63
2022-11-19T10:53:07.583Z,7.97
2022-11-19T10:55:54.941Z,8.63
2022-11-19T10:58:26.060Z,11.07
2022-11-19T11:00:58.296Z,9.52
2022-11-19T11:03:33.783Z,10.63
2022-11-19T11:06:05.233Z,12.02
2022-11-19T11:08:32.989Z,10.20
2022-11-19T11:10:59.969Z,8.73
2022-11-19T11:13:55.620Z,9.05
2022-11-19T11:16:39.053Z,10.23
2022-11-19T11:19:17.729Z,11.40
2022-11-19T11:21:45.515Z,8.35
2022-11-19T11:24:13.782Z,12.47
2022-11-19T11:26:41.043Z,10.10
2022-11-19T11:29:17.107Z,13.43
2022-11-19T11:31:47.102Z,10.82
2022-11-19T11:34:43.777Z,8.95
2022-11-19T11:37:19.909Z,7.67
2022-11-19T11:39:50.007Z,11.50
2022-11-19T11:42:23.931Z,8.70
2022-11-19T11:45:07.404Z,9.13
2022-11-19T11:47:43.757Z,9.23
2022-11-19T11:50:38.467Z,12.23
2022-11-19T11:55:59.133Z,7.75
2022-11-19T11:58:39.616Z,8.45
2022-11-19T12:01:19.798Z,7.00
2022-11-19T12:04:00.188Z,8.53
2022-11-19T12:06:39.346Z,8.27
2022-11-19T12:09:32.105Z,9.60
2022-11-19T12:12:06.973Z,8.77
2022-11-19T12:14:44.206Z,7.50
2022-11-19T12:17:24.812Z,6.73
2022-11-19T12:19:51.107Z,7.45
2022-11-19T12:22:39.146Z,7.05
2022-11-19T12:25:38.701Z,8.50
2022-11-19T12:28:35.654Z,6.00
2022-11-19T12:31:29.770Z,5.50
2022-11-19T12:34:08.149Z,4.88
2022-11-19T12:36:44.397Z,9.13
2022-11-19T12:39:30.105Z,7.22
2022-11-19T12:42:02.617Z,9.98
2022-11-19T12:44:46.401Z,4.67
2022-11-19T12:47:28.277Z,4.40
2022-11-19T12:50:15.331Z,4.93
2022-11-19T12:52:50.341Z,7.10
2022-11-19T12:55:25.150Z,5.20
2022-11-19T12:57:52.303Z,6.10
2022-11-19T13:00:28.730Z,4.43
2022-11-19T13:03:14.898Z,7.03
2022-11-19T13:06:02.780Z,4.85
2022-11-19T13:08:34.647Z,5.15
2022-11-19T13:11:39.716Z,4.07
2022-11-19T13:14:18.375Z,6.40
2022-11-19T13:16:45.042Z,4.32
2022-11-19T13:19:38.477Z,4.75
2022-11-19T13:22:18.869Z,4.00
2022-11-19T13:25:02.879Z,4.43
2022-11-19T13:27:32.505Z,6.80
2022-11-19T13:30:03.106Z,5.22
2022-11-19T13:32:51.446Z,4.03
2022-11-19T13:35:34.141Z,3.83
2022-11-19T13:38:28.770Z,5.97
2022-11-19T13:41:08.071Z,6.88
2022-11-19T13:43:53.742Z,14.88
2022-11-19T13:46:25.917Z,4.47
2022-11-19T13:49:17.753Z,4.32
2022-11-19T13:51:49.597Z,4.00
2022-11-19T13:54:30.132Z,3.92
2022-11-19T13:56:58.782Z,3.78
2022-11-19T13:59:39.426Z,9.38
2022-11-19T14:02:17.981Z,3.22
2022-11-19T14:04:55.524Z,5.57
2022-11-19T14:08:02.221Z,4.22
2022-11-19T14:11:02.203Z,4.25
2022-11-19T14:13:43.521Z,4.80
2022-11-19T14:16:35.153Z,5.03
2022-11-19T14:19:22.371Z,7.30
2022-11-19T14:22:13.599Z,16.27
2022-11-19T14:24:58.752Z,13.60
2022-11-19T14:27:31.634Z,15.05
2022-11-19T14:30:12.459Z,10.02
2022-11-19T14:32:46.339Z,12.77
2022-11-19T14:35:20.855Z,10.48
2022-11-19T14:37:50.437Z,7.97
2022-11-19T14:40:30.688Z,18.30
2022-11-19T14:43:18.732Z,32.20
2022-11-19T14:46:04.258Z,9.93
2022-11-19T14:48:47.186Z,10.13
2022-11-19T14:51:26.839Z,12.38
2022-11-19T14:54:08.003Z,11.70
2022-11-19T14:56:37.511Z,13.07
2022-11-19T14:59:16.078Z,5.53
2022-11-19T15:01:57.873Z,7.78
2022-11-19T15:04:32.155Z,3.92
2022-11-19T15:07:00.594Z,4.93
2022-11-19T15:09:52.406Z,3.92
2022-11-19T15:12:21.120Z,4.30
2022-11-19T15:15:06.814Z,6.35
2022-11-19T15:17:35.283Z,5.43
2022-11-19T15:20:20.812Z,5.82
2022-11-19T15:23:12.583Z,5.25
2022-11-19T15:25:47.926Z,4.57
2022-11-19T15:28:32.138Z,6.05
2022-11-19T15:31:16.874Z,4.80
2022-11-19T15:34:21.353Z,9.52
2022-11-19T15:36:51.869Z,4.97
2022-11-19T15:39:36.197Z,13.27
2022-11-19T15:42:11.103Z,4.95
2022-11-19T15:44:40.872Z,5.53
2022-11-19T15:47:14.753Z,6.28
2022-11-19T15:49:43.233Z,4.72
2022-11-19T15:52:30.781Z,4.40
2022-11-19T15:55:20.221Z,10.88
2022-11-19T15:57:50.188Z,5.38
2022-11-19T16:00:22.468Z,4.57
2022-11-19T16:02:50.813Z,6.22
2022-11-19T16:05:30.126Z,8.97
2022-11-19T16:07:59.759Z,6.70
2022-11-19T16:10:31.378Z,7.70
2022-11-19T16:13:21.262Z,11.95
2022-11-19T16:16:11.301Z,10.90
2022-11-19T16:18:48.543Z,7.83
2022-11-19T16:21:22.909Z,13.30
2022-11-19T16:24:08.217Z,13.60
2022-11-19T16:26:40.840Z,14.73
2022-11-19T16:29:12.461Z,16.00
2022-11-19T16:31:38.937Z,7.67
2022-11-19T16:34:05.471Z,10.23
2022-11-19T16:36:33.285Z,9.55
2022-11-19T16:39:00.055Z,32.30
2022-11-19T16:41:45.774Z,16.05
2022-11-19T16:44:15.795Z,10.80
2022-11-19T16:46:42.846Z,10.60
2022-11-19T16:49:30.085Z,8.32
2022-11-19T16:51:57.978Z,11.20
2022-11-19T16:54:54.139Z,8.70
2022-11-19T16:57:23.740Z,5.10
2022-11-19T16:59:53.997Z,6.60
2022-11-19T17:02:25.289Z,5.45
2022-11-19T17:04:55.678Z,6.47
2022-11-19T17:07:28.970Z,7.45
2022-11-19T17:10:13.066Z,6.60
2022-11-19T17:12:57.926Z,9.88
2022-11-19T17:15:45.100Z,10.63
2022-11-19T17:18:31.481Z,10.38
2022-11-19T17:21:21.474Z,11.75
2022-11-19T17:23:50.234Z,10.23
2022-11-19T17:26:21.625Z,12.23
2022-11-19T17:28:51.386Z,10.40
2022-11-19T17:31:24.100Z,16.73
2022-11-19T17:33:54.899Z,21.42
2022-11-19T17:36:22.289Z,9.17
2022-11-19T17:38:49.590Z,9.93
2022-11-19T17:41:39.430Z,13.75
2022-11-19T17:44:30.917Z,12.82
2022-11-19T17:46:58.869Z,12.00
2022-11-19T17:49:25.890Z,11.60
2022-11-19T17:51:52.913Z,22.98
2022-11-19T17:54:19.788Z,20.08
2022-11-19T17:56:46.952Z,14.00
2022-11-19T17:59:13.936Z,15.63
2022-11-19T18:01:40.406Z,10.37
2022-11-19T18:04:06.859Z,16.73
2022-11-19T18:06:33.677Z,15.43
2022-11-19T18:09:00.052Z,14.27
2022-11-19T18:11:27.139Z,9.20
2022-11-19T18:13:58.535Z,10.00
2022-11-19T18:16:31.582Z,7.18
2022-11-19T18:18:58.066Z,8.95
2022-11-19T18:21:24.845Z,12.13
2022-11-19T18:23:51.951Z,18.13
2022-11-19T18:26:22.233Z,23.10
2022-11-19T18:28:49.334Z,16.35
2022-11-19T18:31:19.192Z,11.52
2022-11-19T18:33:47.916Z,11.90
2022-11-19T18:36:14.963Z,9.00
2022-11-19T18:38:42.639Z,13.70
2022-11-19T18:41:10.710Z,8.30
2022-11-19T18:43:55.890Z,10.35
2022-11-19T18:46:22.281Z,11.93
2022-11-19T18:48:49.652Z,10.13
2022-11-19T18:51:16.028Z,8.27
2022-11-19T18:53:45.769Z,8.73
2022-11-19T18:56:19.396Z,9.13
2022-11-19T18:58:47.268Z,7.95
2022-11-19T19:01:16.129Z,8.88
2022-11-19T19:03:42.670Z,37.20
2022-11-19T19:06:09.669Z,17.00
2022-11-19T19:08:36.550Z,15.10
2022-11-19T19:11:25.902Z,13.10
2022-11-19T19:13:52.676Z,11.75
2022-11-19T19:16:19.149Z,17.87
2022-11-19T19:18:45.547Z,20.55
2022-11-19T19:21:13.694Z,12.05
2022-11-19T19:23:40.369Z,14.20
2022-11-19T19:26:08.212Z,12.40
2022-11-19T19:28:35.699Z,9.23
2022-11-19T19:31:02.231Z,12.63
2022-11-19T19:33:28.811Z,10.45
2022-11-19T19:35:55.186Z,13.02
2022-11-19T19:38:21.656Z,12.38
2022-11-19T19:40:48.007Z,13.93
2022-11-19T19:43:14.415Z,8.23
2022-11-19T19:45:40.949Z,10.32
2022-11-19T19:48:07.352Z,9.45
2022-11-19T19:50:33.913Z,9.93
2022-11-19T19:53:00.418Z,13.00
2022-11-19T19:55:31.414Z,6.85
2022-11-19T19:57:57.949Z,9.55
2022-11-19T20:00:24.318Z,8.82
2022-11-19T20:02:50.930Z,13.52
2022-11-19T20:05:17.309Z,8.97
2022-11-19T20:07:43.822Z,11.63
2022-11-19T20:10:10.712Z,9.10
2022-11-19T20:12:55.887Z,10.65
2022-11-19T20:15:24.585Z,9.75
2022-11-19T20:17:51.485Z,12.37
2022-11-19T20:20:17.924Z,12.70
2022-11-19T20:22:44.341Z,9.43
2022-11-19T20:25:11.579Z,9.65
2022-11-19T20:27:38.289Z,10.60
2022-11-19T20:30:05.872Z,12.67
2022-11-19T20:32:32.439Z,10.88
2022-11-19T20:34:58.908Z,12.70
2022-11-19T20:37:27.083Z,11.85
2022-11-19T20:39:53.695Z,9.82
2022-11-19T20:42:38.825Z,11.80
2022-11-19T20:45:06.041Z,10.80
2022-11-19T20:47:32.462Z,16.50
2022-11-19T20:49:59.176Z,9.00
2022-11-19T20:52:25.637Z,10.93
2022-11-19T20:54:53.110Z,10.00
2022-11-19T20:57:19.566Z,9.98
2022-11-19T20:59:54.264Z,11.13
2022-11-19T21:02:20.947Z,12.02
2022-11-19T21:04:47.430Z,13.85
2022-11-19T21:07:14.047Z,12.03
2022-11-19T21:09:40.400Z,13.93
2022-11-19T21:12:07.865Z,14.20
2022-11-19T21:14:34.683Z,12.30
2022-11-19T21:17:01.235Z,14.45
2022-11-19T21:19:27.943Z,13.00
2022-11-19T21:21:54.936Z,13.23
2022-11-19T21:24:21.483Z,13.07
2022-11-19T21:26:48.098Z,13.02
2022-11-19T21:29:18.102Z,22.35
2022-11-19T21:31:47.100Z,23.57
2022-11-19T21:34:17.856Z,13.30
2022-11-19T21:36:46.185Z,13.95
2022-11-19T21:39:14.626Z,12.65
2022-11-19T21:41:41.173Z,12.50
2022-11-19T21:44:07.583Z,13.37
2022-11-19T21:46:37.012Z,15.05
2022-11-19T21:49:03.881Z,13.82
2022-11-19T21:51:30.790Z,24.15
2022-11-19T21:53:59.076Z,17.90
2022-11-19T21:56:27.262Z,11.37
2022-11-19T21:58:55.377Z,14.98
2022-11-19T22:01:22.681Z,14.05
2022-11-19T22:03:52.178Z,13.93
2022-11-19T22:06:23.151Z,13.23
2022-11-19T22:08:51.439Z,16.73
2022-11-19T22:11:33.081Z,18.98
2022-11-19T22:14:05.480Z,20.15
2022-11-19T22:16:34.602Z,15.63
2022-11-19T22:19:01.238Z,21.63
2022-11-19T22:21:29.540Z,14.07
2022-11-19T22:23:56.151Z,14.70
2022-11-19T22:26:22.757Z,17.98
2022-11-19T22:28:49.697Z,17.77
2022-11-19T22:31:16.176Z,23.20
2022-11-19T22:33:42.830Z,18.73
2022-11-19T22:36:10.938Z,19.83
2022-11-19T22:38:38.714Z,19.33
2022-11-19T22:41:08.189Z,13.95
2022-11-19T22:43:35.662Z,23.63
2022-11-19T22:46:02.370Z,19.07
2022-11-19T22:48:30.361Z,13.43
2022-11-19T22:50:59.494Z,13.43
2022-11-19T22:53:26.530Z,16.42
2022-11-19T22:55:53.501Z,15.07
2022-11-19T22:58:20.510Z,16.70
2022-11-19T23:00:49.377Z,17.05
2022-11-19T23:03:16.388Z,15.15
2022-11-19T23:05:52.093Z,15.98
2022-11-19T23:08:20.027Z,14.02
2022-11-19T23:10:48.024Z,17.33
2022-11-19T23:13:31.864Z,14.88
2022-11-19T23:16:20.117Z,13.65
2022-11-19T23:18:48.469Z,12.13
2022-11-19T23:21:17.451Z,12.80
2022-11-19T23:23:44.545Z,12.80
2022-11-19T23:26:12.937Z,16.55
2022-11-19T23:28:39.959Z,15.05
2022-11-19T23:31:36.685Z,12.10
2022-11-19T23:34:05.121Z,15.20
2022-11-19T23:36:34.439Z,12.87
2022-11-19T23:39:01.946Z,12.00
2022-11-19T23:41:31.404Z,12.40
2022-11-19T23:44:13.677Z,12.27
2022-11-19T23:46:44.111Z,13.90
2022-11-19T23:49:16.233Z,16.93
2022-11-19T23:51:49.548Z,15.55
2022-11-19T23:54:20.042Z,17.70
2022-11-19T23:56:48.353Z,14.32
2022-11-19T23:59:44.433Z,10.63
